sensor_id;sensor_type;location;lat;lon;timestamp;P1;durP1;ratioP1;P2;durP2;ratioP2
41661;SDS011;27351;45.992;12.666;2024-01-15T00:01:14;49.70;;;25.33;;
41661;SDS011;27351;45.992;12.666;2024-01-15T00:03:39;45.17;;;25.15;;
41661;SDS011;27351;45.992;12.666;2024-01-15T00:06:05;54.40;;;26.30;;
41661;SDS011;27351;45.992;12.666;2024-01-15T00:08:31;49.40;;;26.13;;
41661;SDS011;27351;45.992;12.666;2024-01-15T00:10:56;49.95;;;26.95;;
41661;SDS011;27351;45.992;12.666;2024-01-15T00:13:22;41.75;;;25.48;;
41661;SDS011;27351;45.992;12.666;2024-01-15T00:15:48;43.60;;;24.63;;
41661;SDS011;27351;45.992;12.666;2024-01-15T00:18:13;47.13;;;25.13;;
41661;SDS011;27351;45.992;12.666;2024-01-15T00:20:39;51.43;;;26.93;;
41661;SDS011;27351;45.992;12.666;2024-01-15T00:23:04;50.53;;;25.30;;
41661;SDS011;27351;45.992;12.666;2024-01-15T00:25:30;46.67;;;25.05;;
41661;SDS011;27351;45.992;12.666;2024-01-15T00:27:56;44.80;;;24.23;;
41661;SDS011;27351;45.992;12.666;2024-01-15T00:30:21;50.67;;;26.83;;
41661;SDS011;27351;45.992;12.666;2024-01-15T00:32:47;54.88;;;28.13;;
41661;SDS011;27351;45.992;12.666;2024-01-15T00:35:13;46.67;;;25.25;;
41661;SDS011;27351;45.992;12.666;2024-01-15T00:37:39;44.63;;;23.10;;
41661;SDS011;27351;45.992;12.666;2024-01-15T00:40:05;50.28;;;25.80;;
41661;SDS011;27351;45.992;12.666;2024-01-15T00:42:31;44.93;;;24.23;;
41661;SDS011;27351;45.992;12.666;2024-01-15T00:44:56;46.60;;;24.57;;
41661;SDS011;27351;45.992;12.666;2024-01-15T00:47:22;45.90;;;24.30;;
41661;SDS011;27351;45.992;12.666;2024-01-15T00:49:47;44.07;;;23.80;;
41661;SDS011;27351;45.992;12.666;2024-01-15T00:52:13;42.77;;;24.23;;
41661;SDS011;27351;45.992;12.666;2024-01-15T00:54:39;39.57;;;22.33;;
41661;SDS011;27351;45.992;12.666;2024-01-15T00:57:05;46.07;;;23.53;;
41661;SDS011;27351;45.992;12.666;2024-01-15T00:59:30;41.90;;;22.40;;
41661;SDS011;27351;45.992;12.666;2024-01-15T01:01:56;44.58;;;25.05;;
41661;SDS011;27351;45.992;12.666;2024-01-15T01:04:22;45.15;;;23.67;;
41661;SDS011;27351;45.992;12.666;2024-01-15T01:06:47;42.22;;;22.90;;
41661;SDS011;27351;45.992;12.666;2024-01-15T01:09:13;46.15;;;24.17;;
41661;SDS011;27351;45.992;12.666;2024-01-15T01:11:39;45.43;;;25.30;;
41661;SDS011;27351;45.992;12.666;2024-01-15T01:14:05;49.50;;;25.43;;
41661;SDS011;27351;45.992;12.666;2024-01-15T01:16:31;46.42;;;23.75;;
41661;SDS011;27351;45.992;12.666;2024-01-15T01:18:59;49.15;;;25.27;;
41661;SDS011;27351;45.992;12.666;2024-01-15T01:21:25;41.40;;;23.38;;
41661;SDS011;27351;45.992;12.666;2024-01-15T01:23:50;47.75;;;25.90;;
41661;SDS011;27351;45.992;12.666;2024-01-15T01:26:16;45.85;;;25.08;;
41661;SDS011;27351;45.992;12.666;2024-01-15T01:28:42;44.40;;;24.50;;
41661;SDS011;27351;45.992;12.666;2024-01-15T01:31:08;41.55;;;23.63;;
41661;SDS011;27351;45.992;12.666;2024-01-15T01:33:34;45.08;;;24.08;;
41661;SDS011;27351;45.992;12.666;2024-01-15T01:35:59;45.17;;;24.10;;
41661;SDS011;27351;45.992;12.666;2024-01-15T01:38:25;46.60;;;24.03;;
41661;SDS011;27351;45.992;12.666;2024-01-15T01:40:50;45.57;;;24.60;;
41661;SDS011;27351;45.992;12.666;2024-01-15T01:43:16;44.83;;;23.20;;
41661;SDS011;27351;45.992;12.666;2024-01-15T01:45:42;43.53;;;24.23;;
41661;SDS011;27351;45.992;12.666;2024-01-15T01:48:07;45.33;;;24.30;;
41661;SDS011;27351;45.992;12.666;2024-01-15T01:50:33;49.17;;;24.83;;
41661;SDS011;27351;45.992;12.666;2024-01-15T01:52:59;49.75;;;23.67;;
41661;SDS011;27351;45.992;12.666;2024-01-15T01:55:26;44.90;;;22.85;;
41661;SDS011;27351;45.992;12.666;2024-01-15T01:57:52;46.75;;;24.17;;
41661;SDS011;27351;45.992;12.666;2024-01-15T02:00:18;43.10;;;22.10;;
41661;SDS011;27351;45.992;12.666;2024-01-15T02:02:43;41.13;;;22.60;;
41661;SDS011;27351;45.992;12.666;2024-01-15T02:05:09;44.38;;;23.48;;
41661;SDS011;27351;45.992;12.666;2024-01-15T02:07:35;39.00;;;21.63;;
41661;SDS011;27351;45.992;12.666;2024-01-15T02:10:01;47.45;;;23.05;;
41661;SDS011;27351;45.992;12.666;2024-01-15T02:12:27;42.80;;;23.27;;
41661;SDS011;27351;45.992;12.666;2024-01-15T02:14:53;41.73;;;24.37;;
41661;SDS011;27351;45.992;12.666;2024-01-15T02:17:18;38.10;;;22.03;;
41661;SDS011;27351;45.992;12.666;2024-01-15T02:19:44;41.30;;;22.50;;
41661;SDS011;27351;45.992;12.666;2024-01-15T02:22:09;44.83;;;23.95;;
41661;SDS011;27351;45.992;12.666;2024-01-15T02:24:35;43.45;;;21.90;;
41661;SDS011;27351;45.992;12.666;2024-01-15T02:27:01;41.45;;;22.00;;
41661;SDS011;27351;45.992;12.666;2024-01-15T02:29:26;40.20;;;21.30;;
41661;SDS011;27351;45.992;12.666;2024-01-15T02:31:52;40.83;;;21.77;;
41661;SDS011;27351;45.992;12.666;2024-01-15T02:34:17;40.13;;;20.85;;
41661;SDS011;27351;45.992;12.666;2024-01-15T02:36:43;43.80;;;22.90;;
41661;SDS011;27351;45.992;12.666;2024-01-15T02:39:09;43.85;;;22.88;;
41661;SDS011;27351;45.992;12.666;2024-01-15T02:41:34;46.27;;;23.60;;
41661;SDS011;27351;45.992;12.666;2024-01-15T02:44:00;46.00;;;23.23;;
41661;SDS011;27351;45.992;12.666;2024-01-15T02:46:25;41.07;;;21.47;;
41661;SDS011;27351;45.992;12.666;2024-01-15T02:48:51;44.47;;;22.33;;
41661;SDS011;27351;45.992;12.666;2024-01-15T02:51:16;38.43;;;20.87;;
41661;SDS011;27351;45.992;12.666;2024-01-15T02:53:42;36.87;;;19.67;;
41661;SDS011;27351;45.992;12.666;2024-01-15T02:56:08;34.90;;;18.97;;
41661;SDS011;27351;45.992;12.666;2024-01-15T02:58:33;35.87;;;17.87;;
41661;SDS011;27351;45.992;12.666;2024-01-15T03:00:59;33.03;;;17.77;;
41661;SDS011;27351;45.992;12.666;2024-01-15T03:03:24;35.63;;;17.53;;
41661;SDS011;27351;45.992;12.666;2024-01-15T03:05:50;36.40;;;18.70;;
41661;SDS011;27351;45.992;12.666;2024-01-15T03:08:16;33.33;;;17.08;;
41661;SDS011;27351;45.992;12.666;2024-01-15T03:10:42;32.85;;;16.92;;
41661;SDS011;27351;45.992;12.666;2024-01-15T03:13:08;31.23;;;16.27;;
41661;SDS011;27351;45.992;12.666;2024-01-15T03:15:34;33.63;;;17.23;;
41661;SDS011;27351;45.992;12.666;2024-01-15T03:17:59;31.63;;;17.53;;
41661;SDS011;27351;45.992;12.666;2024-01-15T03:20:25;33.30;;;17.10;;
41661;SDS011;27351;45.992;12.666;2024-01-15T03:22:51;36.50;;;16.98;;
41661;SDS011;27351;45.992;12.666;2024-01-15T03:25:16;32.75;;;17.08;;
41661;SDS011;27351;45.992;12.666;2024-01-15T03:27:42;31.15;;;16.55;;
41661;SDS011;27351;45.992;12.666;2024-01-15T03:30:08;33.25;;;18.60;;
41661;SDS011;27351;45.992;12.666;2024-01-15T03:32:33;32.42;;;16.27;;
41661;SDS011;27351;45.992;12.666;2024-01-15T03:34:59;31.13;;;15.20;;
41661;SDS011;27351;45.992;12.666;2024-01-15T03:37:25;29.77;;;15.97;;
41661;SDS011;27351;45.992;12.666;2024-01-15T03:39:50;32.27;;;16.33;;
41661;SDS011;27351;45.992;12.666;2024-01-15T03:42:16;33.30;;;17.33;;
41661;SDS011;27351;45.992;12.666;2024-01-15T03:44:41;31.00;;;15.93;;
41661;SDS011;27351;45.992;12.666;2024-01-15T03:47:07;31.67;;;15.87;;
41661;SDS011;27351;45.992;12.666;2024-01-15T03:49:32;29.98;;;17.08;;
41661;SDS011;27351;45.992;12.666;2024-01-15T03:51:58;31.60;;;15.63;;
41661;SDS011;27351;45.992;12.666;2024-01-15T03:54:23;29.50;;;15.88;;
41661;SDS011;27351;45.992;12.666;2024-01-15T03:56:49;31.38;;;15.52;;
41661;SDS011;27351;45.992;12.666;2024-01-15T03:59:15;36.35;;;16.35;;
41661;SDS011;27351;45.992;12.666;2024-01-15T04:01:40;31.77;;;15.00;;
41661;SDS011;27351;45.992;12.666;2024-01-15T04:04:06;27.00;;;15.38;;
41661;SDS011;27351;45.992;12.666;2024-01-15T04:06:31;30.20;;;14.70;;
41661;SDS011;27351;45.992;12.666;2024-01-15T04:08:58;29.10;;;15.80;;
41661;SDS011;27351;45.992;12.666;2024-01-15T04:11:24;30.98;;;15.20;;
41661;SDS011;27351;45.992;12.666;2024-01-15T04:13:50;27.70;;;14.47;;
41661;SDS011;27351;45.992;12.666;2024-01-15T04:16:16;29.40;;;15.23;;
41661;SDS011;27351;45.992;12.666;2024-01-15T04:18:41;30.03;;;15.57;;
41661;SDS011;27351;45.992;12.666;2024-01-15T04:21:07;30.37;;;14.93;;
41661;SDS011;27351;45.992;12.666;2024-01-15T04:23:32;29.97;;;15.47;;
41661;SDS011;27351;45.992;12.666;2024-01-15T04:25:58;30.52;;;16.42;;
41661;SDS011;27351;45.992;12.666;2024-01-15T04:28:24;32.55;;;17.55;;
41661;SDS011;27351;45.992;12.666;2024-01-15T04:30:49;38.83;;;18.75;;
41661;SDS011;27351;45.992;12.666;2024-01-15T04:33:15;33.33;;;16.25;;
41661;SDS011;27351;45.992;12.666;2024-01-15T04:35:40;31.65;;;16.42;;
41661;SDS011;27351;45.992;12.666;2024-01-15T04:38:06;33.92;;;18.00;;
41661;SDS011;27351;45.992;12.666;2024-01-15T04:40:32;34.47;;;17.90;;
41661;SDS011;27351;45.992;12.666;2024-01-15T04:42:57;34.57;;;17.47;;
41661;SDS011;27351;45.992;12.666;2024-01-15T04:45:23;33.77;;;16.27;;
41661;SDS011;27351;45.992;12.666;2024-01-15T04:47:53;33.38;;;17.13;;
41661;SDS011;27351;45.992;12.666;2024-01-15T04:50:19;38.20;;;16.77;;
41661;SDS011;27351;45.992;12.666;2024-01-15T04:52:44;29.10;;;14.87;;
41661;SDS011;27351;45.992;12.666;2024-01-15T04:55:10;29.97;;;15.33;;
41661;SDS011;27351;45.992;12.666;2024-01-15T04:57:36;28.13;;;14.65;;
41661;SDS011;27351;45.992;12.666;2024-01-15T05:00:01;29.23;;;14.43;;
41661;SDS011;27351;45.992;12.666;2024-01-15T05:02:28;31.63;;;15.65;;
41661;SDS011;27351;45.992;12.666;2024-01-15T05:04:53;32.42;;;16.48;;
41661;SDS011;27351;45.992;12.666;2024-01-15T05:07:19;30.17;;;16.17;;
41661;SDS011;27351;45.992;12.666;2024-01-15T05:09:44;28.97;;;14.83;;
41661;SDS011;27351;45.992;12.666;2024-01-15T05:12:10;32.00;;;15.33;;
41661;SDS011;27351;45.992;12.666;2024-01-15T05:14:36;29.77;;;16.10;;
41661;SDS011;27351;45.992;12.666;2024-01-15T05:17:02;30.85;;;15.57;;
41661;SDS011;27351;45.992;12.666;2024-01-15T05:19:27;29.73;;;14.65;;
41661;SDS011;27351;45.992;12.666;2024-01-15T05:21:53;29.73;;;15.80;;
41661;SDS011;27351;45.992;12.666;2024-01-15T05:24:19;29.80;;;14.77;;
41661;SDS011;27351;45.992;12.666;2024-01-15T05:26:44;31.87;;;14.80;;
41661;SDS011;27351;45.992;12.666;2024-01-15T05:29:10;31.63;;;15.10;;
41661;SDS011;27351;45.992;12.666;2024-01-15T05:31:35;28.30;;;14.83;;
41661;SDS011;27351;45.992;12.666;2024-01-15T05:34:01;30.50;;;15.83;;
41661;SDS011;27351;45.992;12.666;2024-01-15T05:36:27;27.88;;;14.82;;
41661;SDS011;27351;45.992;12.666;2024-01-15T05:38:52;31.23;;;15.90;;
41661;SDS011;27351;45.992;12.666;2024-01-15T05:41:18;33.45;;;16.58;;
41661;SDS011;27351;45.992;12.666;2024-01-15T05:43:43;30.42;;;16.38;;
41661;SDS011;27351;45.992;12.666;2024-01-15T05:46:09;30.67;;;16.65;;
41661;SDS011;27351;45.992;12.666;2024-01-15T05:48:35;31.00;;;15.77;;
41661;SDS011;27351;45.992;12.666;2024-01-15T05:51:00;25.70;;;14.50;;
41661;SDS011;27351;45.992;12.666;2024-01-15T05:53:26;28.23;;;15.03;;
41661;SDS011;27351;45.992;12.666;2024-01-15T05:55:51;30.10;;;14.98;;
41661;SDS011;27351;45.992;12.666;2024-01-15T05:58:17;29.10;;;14.98;;
41661;SDS011;27351;45.992;12.666;2024-01-15T06:00:43;28.67;;;15.00;;
41661;SDS011;27351;45.992;12.666;2024-01-15T06:03:08;38.83;;;16.80;;
41661;SDS011;27351;45.992;12.666;2024-01-15T06:05:34;30.70;;;15.33;;
41661;SDS011;27351;45.992;12.666;2024-01-15T06:07:59;28.70;;;14.57;;
41661;SDS011;27351;45.992;12.666;2024-01-15T06:10:25;32.70;;;16.47;;
41661;SDS011;27351;45.992;12.666;2024-01-15T06:12:50;28.23;;;15.03;;
41661;SDS011;27351;45.992;12.666;2024-01-15T06:15:16;27.20;;;14.13;;
41661;SDS011;27351;45.992;12.666;2024-01-15T06:17:42;31.02;;;14.73;;
41661;SDS011;27351;45.992;12.666;2024-01-15T06:20:07;30.65;;;15.10;;
41661;SDS011;27351;45.992;12.666;2024-01-15T06:22:34;27.77;;;14.25;;
41661;SDS011;27351;45.992;12.666;2024-01-15T06:25:01;27.87;;;15.20;;
41661;SDS011;27351;45.992;12.666;2024-01-15T06:27:26;28.63;;;15.30;;
41661;SDS011;27351;45.992;12.666;2024-01-15T06:29:52;26.67;;;14.52;;
41661;SDS011;27351;45.992;12.666;2024-01-15T06:32:18;26.67;;;13.27;;
41661;SDS011;27351;45.992;12.666;2024-01-15T06:34:43;25.73;;;12.73;;
41661;SDS011;27351;45.992;12.666;2024-01-15T06:37:09;31.48;;;15.88;;
41661;SDS011;27351;45.992;12.666;2024-01-15T06:39:34;29.55;;;14.65;;
41661;SDS011;27351;45.992;12.666;2024-01-15T06:42:00;28.43;;;14.07;;
41661;SDS011;27351;45.992;12.666;2024-01-15T06:44:25;25.23;;;13.70;;
41661;SDS011;27351;45.992;12.666;2024-01-15T06:46:51;28.53;;;14.50;;
41661;SDS011;27351;45.992;12.666;2024-01-15T06:49:17;29.10;;;14.90;;
41661;SDS011;27351;45.992;12.666;2024-01-15T06:51:42;28.77;;;15.25;;
41661;SDS011;27351;45.992;12.666;2024-01-15T06:54:08;28.50;;;15.30;;
41661;SDS011;27351;45.992;12.666;2024-01-15T06:56:36;26.52;;;14.13;;
41661;SDS011;27351;45.992;12.666;2024-01-15T06:59:01;26.23;;;12.73;;
41661;SDS011;27351;45.992;12.666;2024-01-15T07:01:28;28.92;;;15.18;;
41661;SDS011;27351;45.992;12.666;2024-01-15T07:03:53;26.17;;;14.23;;
41661;SDS011;27351;45.992;12.666;2024-01-15T07:06:19;28.70;;;13.70;;
41661;SDS011;27351;45.992;12.666;2024-01-15T07:08:45;25.17;;;13.47;;
41661;SDS011;27351;45.992;12.666;2024-01-15T07:11:11;28.07;;;14.10;;
41661;SDS011;27351;45.992;12.666;2024-01-15T07:13:37;27.33;;;13.85;;
41661;SDS011;27351;45.992;12.666;2024-01-15T07:16:03;30.13;;;14.18;;
41661;SDS011;27351;45.992;12.666;2024-01-15T07:18:29;29.05;;;14.70;;
41661;SDS011;27351;45.992;12.666;2024-01-15T07:20:54;31.87;;;16.97;;
41661;SDS011;27351;45.992;12.666;2024-01-15T07:23:20;32.27;;;14.97;;
41661;SDS011;27351;45.992;12.666;2024-01-15T07:25:46;31.23;;;15.60;;
41661;SDS011;27351;45.992;12.666;2024-01-15T07:28:11;32.10;;;16.07;;
41661;SDS011;27351;45.992;12.666;2024-01-15T07:30:37;32.47;;;16.15;;
41661;SDS011;27351;45.992;12.666;2024-01-15T07:33:04;28.20;;;15.05;;
41661;SDS011;27351;45.992;12.666;2024-01-15T07:35:30;30.03;;;15.37;;
41661;SDS011;27351;45.992;12.666;2024-01-15T07:37:55;27.90;;;15.35;;
41661;SDS011;27351;45.992;12.666;2024-01-15T07:40:21;27.67;;;14.88;;
41661;SDS011;27351;45.992;12.666;2024-01-15T07:42:47;32.80;;;15.80;;
41661;SDS011;27351;45.992;12.666;2024-01-15T07:45:13;30.67;;;14.68;;
41661;SDS011;27351;45.992;12.666;2024-01-15T07:47:38;33.80;;;16.35;;
41661;SDS011;27351;45.992;12.666;2024-01-15T07:50:04;29.85;;;15.05;;
41661;SDS011;27351;45.992;12.666;2024-01-15T07:52:30;33.75;;;18.17;;
41661;SDS011;27351;45.992;12.666;2024-01-15T07:54:56;28.83;;;15.25;;
41661;SDS011;27351;45.992;12.666;2024-01-15T07:57:21;31.58;;;16.23;;
41661;SDS011;27351;45.992;12.666;2024-01-15T07:59:48;31.67;;;15.50;;
41661;SDS011;27351;45.992;12.666;2024-01-15T08:02:13;31.92;;;15.98;;
41661;SDS011;27351;45.992;12.666;2024-01-15T08:04:39;39.35;;;18.95;;
41661;SDS011;27351;45.992;12.666;2024-01-15T08:07:05;34.85;;;17.98;;
41661;SDS011;27351;45.992;12.666;2024-01-15T08:09:32;30.70;;;16.77;;
41661;SDS011;27351;45.992;12.666;2024-01-15T08:11:57;30.63;;;16.45;;
41661;SDS011;27351;45.992;12.666;2024-01-15T08:14:23;30.48;;;15.57;;
41661;SDS011;27351;45.992;12.666;2024-01-15T08:16:49;30.37;;;16.07;;
41661;SDS011;27351;45.992;12.666;2024-01-15T08:19:14;30.30;;;16.57;;
41661;SDS011;27351;45.992;12.666;2024-01-15T08:21:40;27.83;;;14.97;;
41661;SDS011;27351;45.992;12.666;2024-01-15T08:24:06;26.40;;;13.70;;
41661;SDS011;27351;45.992;12.666;2024-01-15T08:26:31;29.95;;;15.18;;
41661;SDS011;27351;45.992;12.666;2024-01-15T08:28:58;33.42;;;16.40;;
41661;SDS011;27351;45.992;12.666;2024-01-15T08:31:23;30.03;;;15.67;;
41661;SDS011;27351;45.992;12.666;2024-01-15T08:33:49;35.45;;;16.58;;
41661;SDS011;27351;45.992;12.666;2024-01-15T08:36:15;33.47;;;17.63;;
41661;SDS011;27351;45.992;12.666;2024-01-15T08:38:40;35.07;;;18.83;;
41661;SDS011;27351;45.992;12.666;2024-01-15T08:41:06;28.83;;;16.03;;
41661;SDS011;27351;45.992;12.666;2024-01-15T08:43:34;34.33;;;17.73;;
41661;SDS011;27351;45.992;12.666;2024-01-15T08:45:59;34.53;;;18.40;;
41661;SDS011;27351;45.992;12.666;2024-01-15T08:48:25;32.65;;;18.35;;
41661;SDS011;27351;45.992;12.666;2024-01-15T08:50:54;31.10;;;18.88;;
41661;SDS011;27351;45.992;12.666;2024-01-15T08:53:20;33.83;;;17.83;;
41661;SDS011;27351;45.992;12.666;2024-01-15T08:55:45;31.67;;;17.02;;
41661;SDS011;27351;45.992;12.666;2024-01-15T08:58:11;32.65;;;17.60;;
41661;SDS011;27351;45.992;12.666;2024-01-15T09:00:37;29.30;;;17.13;;
41661;SDS011;27351;45.992;12.666;2024-01-15T09:03:02;34.35;;;16.83;;
41661;SDS011;27351;45.992;12.666;2024-01-15T09:05:28;32.65;;;16.52;;
41661;SDS011;27351;45.992;12.666;2024-01-15T09:07:54;26.88;;;14.90;;
41661;SDS011;27351;45.992;12.666;2024-01-15T09:10:19;26.85;;;15.45;;
41661;SDS011;27351;45.992;12.666;2024-01-15T09:12:45;33.30;;;17.02;;
41661;SDS011;27351;45.992;12.666;2024-01-15T09:15:11;30.73;;;15.90;;
41661;SDS011;27351;45.992;12.666;2024-01-15T09:17:37;32.97;;;16.73;;
41661;SDS011;27351;45.992;12.666;2024-01-15T09:20:03;31.05;;;15.68;;
41661;SDS011;27351;45.992;12.666;2024-01-15T09:22:31;30.73;;;16.20;;
41661;SDS011;27351;45.992;12.666;2024-01-15T09:24:57;31.48;;;16.02;;
41661;SDS011;27351;45.992;12.666;2024-01-15T09:27:24;31.55;;;16.83;;
41661;SDS011;27351;45.992;12.666;2024-01-15T09:29:52;30.08;;;16.85;;
41661;SDS011;27351;45.992;12.666;2024-01-15T09:32:17;31.27;;;16.95;;
41661;SDS011;27351;45.992;12.666;2024-01-15T09:34:43;32.53;;;16.75;;
41661;SDS011;27351;45.992;12.666;2024-01-15T09:37:09;32.30;;;16.80;;
41661;SDS011;27351;45.992;12.666;2024-01-15T09:39:35;31.25;;;17.02;;
41661;SDS011;27351;45.992;12.666;2024-01-15T09:42:00;32.07;;;16.63;;
41661;SDS011;27351;45.992;12.666;2024-01-15T09:44:26;30.50;;;16.67;;
41661;SDS011;27351;45.992;12.666;2024-01-15T09:46:52;29.90;;;16.25;;
41661;SDS011;27351;45.992;12.666;2024-01-15T09:49:18;32.90;;;17.45;;
41661;SDS011;27351;45.992;12.666;2024-01-15T09:51:44;33.45;;;18.15;;
41661;SDS011;27351;45.992;12.666;2024-01-15T09:54:09;32.67;;;17.63;;
41661;SDS011;27351;45.992;12.666;2024-01-15T09:56:35;31.27;;;17.03;;
41661;SDS011;27351;45.992;12.666;2024-01-15T09:59:01;31.15;;;16.95;;
41661;SDS011;27351;45.992;12.666;2024-01-15T10:01:27;34.10;;;19.48;;
41661;SDS011;27351;45.992;12.666;2024-01-15T10:03:54;30.75;;;16.67;;
41661;SDS011;27351;45.992;12.666;2024-01-15T10:06:20;31.23;;;17.35;;
41661;SDS011;27351;45.992;12.666;2024-01-15T10:08:47;32.45;;;17.00;;
41661;SDS011;27351;45.992;12.666;2024-01-15T10:11:13;32.43;;;17.07;;
41661;SDS011;27351;45.992;12.666;2024-01-15T10:13:39;30.80;;;15.60;;
41661;SDS011;27351;45.992;12.666;2024-01-15T10:16:05;32.83;;;17.40;;
41661;SDS011;27351;45.992;12.666;2024-01-15T10:18:31;33.40;;;16.63;;
41661;SDS011;27351;45.992;12.666;2024-01-15T10:20:57;28.27;;;14.57;;
41661;SDS011;27351;45.992;12.666;2024-01-15T10:23:23;30.00;;;16.75;;
41661;SDS011;27351;45.992;12.666;2024-01-15T10:25:48;32.80;;;16.80;;
41661;SDS011;27351;45.992;12.666;2024-01-15T10:28:14;30.40;;;16.70;;
41661;SDS011;27351;45.992;12.666;2024-01-15T10:30:39;30.17;;;16.00;;
41661;SDS011;27351;45.992;12.666;2024-01-15T10:33:05;31.07;;;17.00;;
41661;SDS011;27351;45.992;12.666;2024-01-15T10:35:31;27.60;;;15.37;;
41661;SDS011;27351;45.992;12.666;2024-01-15T10:37:58;31.27;;;17.20;;
41661;SDS011;27351;45.992;12.666;2024-01-15T10:40:24;31.85;;;16.55;;
41661;SDS011;27351;45.992;12.666;2024-01-15T10:42:49;29.53;;;15.77;;
41661;SDS011;27351;45.992;12.666;2024-01-15T10:45:15;29.77;;;16.03;;
41661;SDS011;27351;45.992;12.666;2024-01-15T10:47:41;27.37;;;15.87;;
41661;SDS011;27351;45.992;12.666;2024-01-15T10:50:07;32.47;;;16.42;;
41661;SDS011;27351;45.992;12.666;2024-01-15T10:52:34;28.02;;;15.98;;
41661;SDS011;27351;45.992;12.666;2024-01-15T10:55:00;27.30;;;15.65;;
41661;SDS011;27351;45.992;12.666;2024-01-15T10:57:26;33.63;;;16.70;;
41661;SDS011;27351;45.992;12.666;2024-01-15T10:59:52;29.23;;;16.58;;
41661;SDS011;27351;45.992;12.666;2024-01-15T11:02:18;25.73;;;14.37;;
41661;SDS011;27351;45.992;12.666;2024-01-15T11:04:43;27.60;;;15.80;;
41661;SDS011;27351;45.992;12.666;2024-01-15T11:07:09;27.97;;;15.93;;
41661;SDS011;27351;45.992;12.666;2024-01-15T11:09:37;31.80;;;17.00;;
41661;SDS011;27351;45.992;12.666;2024-01-15T11:12:12;30.47;;;15.40;;
41661;SDS011;27351;45.992;12.666;2024-01-15T11:14:39;29.67;;;15.87;;
41661;SDS011;27351;45.992;12.666;2024-01-15T11:17:05;26.38;;;14.50;;
41661;SDS011;27351;45.992;12.666;2024-01-15T11:22:07;30.77;;;17.27;;
41661;SDS011;27351;45.992;12.666;2024-01-15T11:24:37;33.20;;;17.88;;
41661;SDS011;27351;45.992;12.666;2024-01-15T11:27:03;35.10;;;16.88;;
41661;SDS011;27351;45.992;12.666;2024-01-15T11:34:19;21.50;;;10.73;;
41661;SDS011;27351;45.992;12.666;2024-01-15T11:41:58;25.33;;;12.75;;
41661;SDS011;27351;45.992;12.666;2024-01-15T11:44:24;25.95;;;12.70;;
41661;SDS011;27351;45.992;12.666;2024-01-15T11:46:57;25.77;;;11.45;;
41661;SDS011;27351;45.992;12.666;2024-01-15T11:52:07;24.25;;;12.65;;
41661;SDS011;27351;45.992;12.666;2024-01-15T11:54:37;23.88;;;13.38;;
41661;SDS011;27351;45.992;12.666;2024-01-15T11:57:14;28.85;;;13.98;;
41661;SDS011;27351;45.992;12.666;2024-01-15T11:59:42;24.13;;;13.45;;
41661;SDS011;27351;45.992;12.666;2024-01-15T12:02:08;28.90;;;13.85;;
41661;SDS011;27351;45.992;12.666;2024-01-15T12:04:37;23.95;;;12.57;;
41661;SDS011;27351;45.992;12.666;2024-01-15T12:07:05;22.88;;;11.50;;
41661;SDS011;27351;45.992;12.666;2024-01-15T12:09:30;25.23;;;11.80;;
41661;SDS011;27351;45.992;12.666;2024-01-15T12:11:59;23.90;;;12.47;;
41661;SDS011;27351;45.992;12.666;2024-01-15T12:14:27;26.38;;;11.90;;
41661;SDS011;27351;45.992;12.666;2024-01-15T12:16:54;22.98;;;11.32;;
41661;SDS011;27351;45.992;12.666;2024-01-15T12:19:20;22.65;;;12.95;;
41661;SDS011;27351;45.992;12.666;2024-01-15T12:21:46;22.58;;;11.80;;
41661;SDS011;27351;45.992;12.666;2024-01-15T12:24:12;24.40;;;11.57;;
41661;SDS011;27351;45.992;12.666;2024-01-15T12:26:38;24.70;;;12.83;;
41661;SDS011;27351;45.992;12.666;2024-01-15T12:29:06;22.73;;;12.05;;
41661;SDS011;27351;45.992;12.666;2024-01-15T12:31:32;23.15;;;11.07;;
41661;SDS011;27351;45.992;12.666;2024-01-15T12:33:57;23.05;;;11.38;;
41661;SDS011;27351;45.992;12.666;2024-01-15T12:36:23;24.17;;;11.57;;
41661;SDS011;27351;45.992;12.666;2024-01-15T12:38:49;20.65;;;11.18;;
41661;SDS011;27351;45.992;12.666;2024-01-15T12:41:14;21.63;;;11.55;;
41661;SDS011;27351;45.992;12.666;2024-01-15T12:43:40;19.65;;;10.88;;
41661;SDS011;27351;45.992;12.666;2024-01-15T12:46:06;22.30;;;11.20;;
41661;SDS011;27351;45.992;12.666;2024-01-15T12:48:31;21.15;;;11.95;;
41661;SDS011;27351;45.992;12.666;2024-01-15T12:50:57;20.63;;;11.50;;
41661;SDS011;27351;45.992;12.666;2024-01-15T12:53:23;23.80;;;11.63;;
41661;SDS011;27351;45.992;12.666;2024-01-15T12:55:48;25.30;;;11.43;;
41661;SDS011;27351;45.992;12.666;2024-01-15T12:58:14;22.20;;;11.20;;
41661;SDS011;27351;45.992;12.666;2024-01-15T13:00:39;19.83;;;10.48;;
41661;SDS011;27351;45.992;12.666;2024-01-15T13:03:05;18.98;;;9.73;;
41661;SDS011;27351;45.992;12.666;2024-01-15T13:05:31;21.08;;;11.13;;
41661;SDS011;27351;45.992;12.666;2024-01-15T13:07:57;18.35;;;10.13;;
41661;SDS011;27351;45.992;12.666;2024-01-15T13:10:23;21.95;;;10.20;;
41661;SDS011;27351;45.992;12.666;2024-01-15T13:12:50;23.15;;;11.70;;
41661;SDS011;27351;45.992;12.666;2024-01-15T13:15:16;21.15;;;10.68;;
41661;SDS011;27351;45.992;12.666;2024-01-15T13:17:42;23.13;;;10.52;;
41661;SDS011;27351;45.992;12.666;2024-01-15T13:20:08;23.15;;;11.27;;
41661;SDS011;27351;45.992;12.666;2024-01-15T13:22:34;23.63;;;11.80;;
41661;SDS011;27351;45.992;12.666;2024-01-15T13:24:59;20.35;;;11.57;;
41661;SDS011;27351;45.992;12.666;2024-01-15T13:27:25;22.02;;;12.23;;
41661;SDS011;27351;45.992;12.666;2024-01-15T13:29:51;22.80;;;11.13;;
41661;SDS011;27351;45.992;12.666;2024-01-15T13:32:17;23.38;;;11.38;;
41661;SDS011;27351;45.992;12.666;2024-01-15T13:34:47;23.27;;;11.88;;
41661;SDS011;27351;45.992;12.666;2024-01-15T13:37:13;22.00;;;11.25;;
41661;SDS011;27351;45.992;12.666;2024-01-15T13:39:39;20.33;;;11.07;;
41661;SDS011;27351;45.992;12.666;2024-01-15T13:42:05;21.50;;;10.65;;
41661;SDS011;27351;45.992;12.666;2024-01-15T13:44:30;21.50;;;11.43;;
41661;SDS011;27351;45.992;12.666;2024-01-15T13:46:56;20.75;;;10.73;;
41661;SDS011;27351;45.992;12.666;2024-01-15T13:49:22;18.08;;;10.50;;
41661;SDS011;27351;45.992;12.666;2024-01-15T13:51:49;22.33;;;11.00;;
41661;SDS011;27351;45.992;12.666;2024-01-15T13:54:15;21.52;;;11.45;;
41661;SDS011;27351;45.992;12.666;2024-01-15T13:56:40;24.23;;;11.90;;
41661;SDS011;27351;45.992;12.666;2024-01-15T13:59:07;20.80;;;11.23;;
41661;SDS011;27351;45.992;12.666;2024-01-15T14:01:32;22.23;;;12.03;;
41661;SDS011;27351;45.992;12.666;2024-01-15T14:03:58;20.93;;;11.73;;
41661;SDS011;27351;45.992;12.666;2024-01-15T14:06:24;20.05;;;10.27;;
41661;SDS011;27351;45.992;12.666;2024-01-15T14:08:50;22.92;;;12.32;;
41661;SDS011;27351;45.992;12.666;2024-01-15T14:11:16;22.73;;;11.90;;
41661;SDS011;27351;45.992;12.666;2024-01-15T14:13:41;23.33;;;12.38;;
41661;SDS011;27351;45.992;12.666;2024-01-15T14:16:07;20.90;;;11.48;;